createdAt,value
2023-03-21T00:00:57.763Z,8.32
2023-03-21T00:03:37.533Z,8.30
2023-03-21T00:06:40.303Z,8.15
2023-03-21T00:10:40.074Z,8.11
2023-03-21T00:28:17.439Z,8.22
2023-03-21T00:30:47.498Z,8.27
2023-03-21T00:33:22.810Z,8.28
2023-03-21T00:36:06.799Z,8.22
2023-03-21T00:38:36.968Z,8.24
2023-03-21T00:41:18.809Z,8.25
2023-03-21T00:43:57.611Z,8.29
2023-03-21T00:46:30.160Z,8.28
2023-03-21T00:49:06.448Z,8.33
2023-03-21T00:51:36.415Z,8.33
2023-03-21T00:54:08.437Z,8.34
2023-03-21T00:56:38.266Z,8.35
2023-03-21T00:59:10.675Z,8.33
2023-03-21T01:01:40.775Z,8.32
2023-03-21T01:04:14.803Z,8.31
2023-03-21T01:06:46.044Z,8.24
2023-03-21T01:09:18.892Z,8.27
2023-03-21T01:11:48.811Z,8.29
2023-03-21T01:14:23.806Z,8.29
2023-03-21T01:16:54.957Z,8.35
2023-03-21T01:19:44.307Z,8.45
2023-03-21T01:22:18.624Z,8.41
2023-03-21T01:25:05.731Z,8.49
2023-03-21T01:27:38.779Z,8.46
2023-03-21T01:30:19.670Z,8.44
2023-03-21T01:32:52.747Z,8.43
2023-03-21T01:35:22.730Z,8.45
2023-03-21T01:37:53.190Z,8.38
2023-03-21T01:40:25.519Z,8.37
2023-03-21T01:43:01.996Z,8.37
2023-03-21T01:46:01.971Z,8.41
2023-03-21T01:48:57.109Z,8.49
2023-03-21T01:51:28.408Z,8.44
2023-03-21T01:54:00.753Z,8.45
2023-03-21T01:56:37.859Z,8.46
2023-03-21T01:59:23.858Z,8.53
2023-03-21T02:02:20.883Z,8.58
2023-03-21T02:05:07.446Z,8.64
2023-03-21T02:07:41.902Z,8.68
2023-03-21T02:10:15.073Z,8.73
2023-03-21T02:12:49.325Z,8.72
2023-03-21T02:15:19.558Z,8.77
2023-03-21T02:18:14.780Z,8.69
2023-03-21T02:21:38.024Z,8.74
2023-03-21T02:24:32.484Z,8.75
2023-03-21T02:27:11.871Z,8.76
2023-03-21T02:30:28.091Z,8.65
2023-03-21T02:33:18.679Z,8.71
2023-03-21T02:36:12.019Z,8.72
2023-03-21T02:38:56.209Z,8.72
2023-03-21T02:41:40.535Z,8.64
2023-03-21T02:44:19.877Z,8.49
2023-03-21T02:47:03.231Z,8.50
2023-03-21T02:49:43.174Z,8.46
2023-03-21T02:52:35.609Z,8.42
2023-03-21T02:55:15.773Z,8.42
2023-03-21T02:58:11.688Z,8.35
2023-03-21T03:00:46.174Z,8.34
2023-03-21T03:03:33.668Z,8.24
2023-03-21T03:06:12.816Z,8.23
2023-03-21T03:09:02.747Z,8.22
2023-03-21T03:11:38.085Z,8.19
2023-03-21T03:15:02.701Z,8.15
2023-03-21T03:17:46.925Z,8.15
2023-03-21T03:20:27.315Z,8.20
2023-03-21T03:23:04.614Z,8.22
2023-03-21T03:25:43.270Z,8.12
2023-03-21T03:28:24.351Z,8.10
2023-03-21T03:31:08.583Z,8.11
2023-03-21T03:33:48.440Z,8.15
2023-03-21T03:36:31.220Z,8.05
2023-03-21T03:39:05.255Z,8.04
2023-03-21T03:42:04.266Z,7.97
2023-03-21T03:44:37.198Z,7.98
2023-03-21T03:47:22.954Z,8.03
2023-03-21T03:50:09.881Z,8.09
2023-03-21T03:52:55.314Z,8.14
2023-03-21T03:55:34.401Z,8.61
2023-03-21T03:58:21.685Z,8.87
2023-03-21T04:00:57.802Z,9.05
2023-03-21T04:03:29.345Z,8.92
2023-03-21T04:06:00.817Z,8.73
2023-03-21T04:08:30.723Z,8.74
2023-03-21T04:11:01.311Z,8.87
2023-03-21T04:13:31.201Z,8.90
2023-03-21T04:16:26.215Z,8.82
2023-03-21T04:18:56.103Z,8.82
2023-03-21T04:21:27.573Z,8.83
2023-03-21T04:23:57.617Z,8.77
2023-03-21T04:26:32.905Z,8.63
2023-03-21T04:29:35.334Z,8.42
2023-03-21T04:32:33.935Z,8.21
2023-03-21T04:35:12.856Z,7.99
2023-03-21T04:37:42.646Z,7.92
2023-03-21T04:40:17.980Z,7.74
2023-03-21T04:42:48.490Z,7.68
2023-03-21T04:45:19.243Z,7.55
2023-03-21T04:47:52.057Z,7.49
2023-03-21T04:50:22.395Z,7.39
2023-03-21T04:52:52.224Z,7.19
2023-03-21T04:55:25.121Z,7.08
2023-03-21T04:57:56.451Z,6.95
2023-03-21T05:00:27.249Z,6.96
2023-03-21T05:03:00.229Z,6.83
2023-03-21T05:05:30.465Z,6.80
2023-03-21T05:08:00.640Z,6.90
2023-03-21T05:10:30.437Z,6.92
2023-03-21T05:13:00.552Z,6.79
2023-03-21T05:15:31.210Z,6.74
2023-03-21T05:18:10.730Z,6.87
2023-03-21T05:20:47.197Z,6.97
2023-03-21T05:23:18.584Z,7.22
2023-03-21T05:25:48.660Z,7.34
2023-03-21T05:28:31.443Z,7.35
2023-03-21T05:31:02.887Z,7.42
2023-03-21T05:33:35.644Z,7.50
2023-03-21T05:36:05.491Z,7.55
2023-03-21T05:38:35.688Z,7.53
2023-03-21T05:41:05.598Z,7.64
2023-03-21T05:43:35.497Z,7.72
2023-03-21T05:46:06.169Z,7.78
2023-03-21T05:48:39.336Z,7.87
2023-03-21T05:51:21.026Z,7.95
2023-03-21T05:53:51.977Z,8.03
2023-03-21T05:56:22.530Z,8.13
2023-03-21T05:58:55.986Z,8.18
2023-03-21T06:01:27.046Z,8.23
2023-03-21T06:04:11.378Z,8.24
2023-03-21T06:06:42.730Z,8.24
2023-03-21T06:09:12.684Z,8.31
2023-03-21T06:11:50.494Z,8.39
2023-03-21T06:14:31.143Z,8.53
2023-03-21T06:17:24.003Z,8.62
2023-03-21T06:20:04.569Z,8.75
2023-03-21T06:22:38.444Z,8.63
2023-03-21T06:25:10.597Z,8.79
2023-03-21T06:27:41.057Z,8.97
2023-03-21T06:30:12.289Z,8.93
2023-03-21T06:32:51.044Z,9.03
2023-03-21T06:35:23.762Z,9.17
2023-03-21T06:37:53.802Z,9.25
2023-03-21T06:40:24.568Z,9.32
2023-03-21T06:42:55.443Z,9.33
2023-03-21T06:45:25.596Z,9.28
2023-03-21T06:47:56.193Z,9.27
2023-03-21T06:50:39.027Z,9.31
2023-03-21T06:53:08.984Z,9.30
2023-03-21T06:55:57.793Z,9.24
2023-03-21T06:58:28.076Z,9.33
2023-03-21T07:01:01.778Z,9.30
2023-03-21T07:03:33.029Z,9.36
2023-03-21T07:06:11.915Z,9.51
2023-03-21T07:08:42.484Z,9.61
2023-03-21T07:11:12.453Z,9.72
2023-03-21T07:13:43.162Z,9.82
2023-03-21T07:16:13.622Z,9.89
2023-03-21T07:18:43.425Z,10.09
2023-03-21T07:21:17.417Z,10.67
2023-03-21T07:23:47.852Z,11.71
2023-03-21T07:26:18.959Z,12.68
2023-03-21T07:28:48.860Z,14.12
2023-03-21T07:31:20.244Z,15.06
2023-03-21T07:33:51.489Z,16.15
2023-03-21T07:36:24.089Z,16.69
2023-03-21T07:38:54.233Z,17.20
2023-03-21T07:41:26.869Z,17.98
2023-03-21T07:44:03.793Z,17.37
2023-03-21T07:46:36.387Z,16.34
2023-03-21T07:49:06.313Z,15.94
2023-03-21T07:51:38.737Z,15.51
2023-03-21T07:54:08.930Z,15.24
2023-03-21T07:56:38.708Z,15.14
2023-03-21T07:59:08.448Z,16.04
2023-03-21T08:01:38.228Z,17.74
2023-03-21T08:04:08.524Z,19.74
2023-03-21T08:06:41.103Z,19.37
2023-03-21T08:09:10.906Z,18.36
2023-03-21T08:11:40.671Z,17.88
2023-03-21T08:14:10.437Z,18.33
2023-03-21T08:16:40.253Z,18.31
2023-03-21T08:19:10.008Z,18.42
2023-03-21T08:21:42.659Z,18.64
2023-03-21T08:24:12.476Z,18.71
2023-03-21T08:26:42.840Z,17.93
2023-03-21T08:29:12.933Z,17.97
2023-03-21T08:31:43.022Z,18.20
2023-03-21T08:34:13.737Z,18.97
2023-03-21T08:36:47.150Z,19.02
2023-03-21T08:39:16.956Z,20.19
2023-03-21T08:41:46.785Z,20.60
2023-03-21T08:44:17.021Z,21.91
2023-03-21T08:46:47.205Z,23.14
2023-03-21T08:49:16.976Z,23.35
2023-03-21T08:51:49.339Z,22.30
2023-03-21T08:54:23.404Z,23.12
2023-03-21T08:56:53.131Z,24.46
2023-03-21T08:59:23.071Z,24.42
2023-03-21T09:01:53.143Z,24.89
2023-03-21T09:04:25.942Z,25.37
2023-03-21T09:07:01.353Z,25.19
2023-03-21T09:09:31.372Z,26.23
2023-03-21T09:12:01.603Z,26.02
2023-03-21T09:14:31.373Z,26.62
2023-03-21T09:17:01.098Z,25.14
2023-03-21T09:19:31.967Z,24.26
2023-03-21T09:22:04.748Z,24.75
2023-03-21T09:24:34.536Z,24.94
2023-03-21T09:27:04.343Z,25.34
2023-03-21T09:29:34.347Z,25.79
2023-03-21T09:32:06.783Z,25.03
2023-03-21T09:34:37.909Z,24.49
2023-03-21T09:37:11.298Z,24.87
2023-03-21T09:39:42.934Z,25.29
2023-03-21T09:42:22.578Z,25.09
2023-03-21T09:45:01.840Z,24.14
2023-03-21T09:47:34.818Z,22.67
2023-03-21T09:50:17.491Z,21.03
2023-03-21T09:52:52.892Z,20.61
2023-03-21T09:55:26.729Z,19.32
2023-03-21T09:58:07.134Z,19.66
2023-03-21T10:00:43.438Z,20.33
2023-03-21T10:03:24.521Z,20.48
2023-03-21T10:05:57.514Z,20.92
2023-03-21T10:08:36.603Z,21.60
2023-03-21T10:11:13.884Z,22.17
2023-03-21T10:13:47.378Z,22.53
2023-03-21T10:16:19.671Z,23.49
2023-03-21T10:18:51.897Z,23.75
2023-03-21T10:21:51.206Z,23.89
2023-03-21T10:24:20.784Z,24.30
2023-03-21T10:26:52.584Z,24.56
2023-03-21T10:29:25.968Z,24.45
2023-03-21T10:31:57.580Z,24.27
2023-03-21T10:34:34.228Z,24.25
2023-03-21T10:37:06.431Z,24.08
2023-03-21T10:39:41.907Z,23.24
2023-03-21T10:42:21.574Z,23.30
2023-03-21T10:44:53.577Z,23.26
2023-03-21T10:47:25.176Z,23.25
2023-03-21T10:50:07.244Z,23.46
2023-03-21T10:52:39.983Z,24.24
2023-03-21T10:55:21.560Z,24.75
2023-03-21T10:57:55.798Z,24.78
2023-03-21T11:00:29.160Z,24.70
2023-03-21T11:03:00.626Z,23.73
2023-03-21T11:05:38.034Z,23.45
2023-03-21T11:08:13.534Z,22.26
2023-03-21T11:10:57.417Z,23.07
2023-03-21T11:13:30.243Z,21.69
2023-03-21T11:16:06.581Z,22.23
2023-03-21T11:18:36.870Z,22.36
2023-03-21T11:21:08.885Z,22.82
2023-03-21T11:23:44.055Z,23.30
2023-03-21T11:26:24.135Z,24.09
2023-03-21T11:28:54.448Z,25.00
2023-03-21T11:31:27.111Z,25.25
2023-03-21T11:34:00.403Z,25.17
2023-03-21T11:36:38.912Z,23.69
2023-03-21T11:39:33.004Z,23.21
2023-03-21T11:42:06.881Z,22.63
2023-03-21T11:44:43.962Z,22.51
2023-03-21T11:47:14.265Z,22.71
2023-03-21T11:49:44.078Z,22.80
2023-03-21T11:52:26.012Z,22.63
2023-03-21T11:55:26.169Z,23.12
2023-03-21T11:58:14.225Z,21.81
2023-03-21T12:00:55.008Z,20.88
2023-03-21T12:03:48.714Z,20.96
2023-03-21T12:06:28.936Z,20.11
2023-03-21T12:09:25.429Z,20.24
2023-03-21T12:12:08.492Z,19.90
2023-03-21T12:14:50.244Z,19.67
2023-03-21T12:17:29.585Z,19.92
2023-03-21T12:20:12.165Z,19.99
2023-03-21T12:22:52.158Z,20.86
2023-03-21T12:25:27.900Z,20.66
2023-03-21T12:28:10.570Z,20.47
2023-03-21T12:30:55.972Z,20.52
2023-03-21T12:33:38.561Z,20.48
2023-03-21T12:36:19.849Z,20.37
2023-03-21T12:39:01.453Z,20.95
2023-03-21T12:41:36.862Z,21.02
2023-03-21T12:44:12.648Z,20.74
2023-03-21T12:46:48.603Z,20.09
2023-03-21T12:49:24.334Z,20.04
2023-03-21T12:51:58.258Z,19.94
2023-03-21T12:54:34.433Z,20.09
2023-03-21T12:57:11.691Z,20.68
2023-03-21T12:59:46.972Z,19.94
2023-03-21T13:02:27.633Z,20.33
2023-03-21T13:05:04.763Z,20.71
2023-03-21T13:07:38.935Z,20.00
2023-03-21T13:10:17.117Z,19.84
2023-03-21T13:12:53.836Z,20.05
2023-03-21T13:15:44.856Z,20.35
2023-03-21T13:18:25.980Z,20.78
2023-03-21T13:20:59.379Z,21.16
2023-03-21T13:23:37.486Z,20.92
2023-03-21T13:26:12.523Z,21.56
2023-03-21T13:28:44.144Z,21.79
2023-03-21T13:31:24.929Z,21.92
2023-03-21T13:34:01.370Z,22.03
2023-03-21T13:36:34.001Z,21.59
2023-03-21T13:39:06.908Z,21.86
2023-03-21T13:41:39.853Z,21.27
2023-03-21T13:44:22.265Z,21.31
2023-03-21T13:46:57.941Z,20.74
2023-03-21T13:49:33.881Z,20.95
2023-03-21T13:52:05.449Z,21.18
2023-03-21T13:54:54.630Z,21.63
2023-03-21T13:57:43.369Z,21.80
2023-03-21T14:00:24.244Z,21.91
2023-03-21T14:02:59.707Z,21.87
2023-03-21T14:05:33.568Z,21.06
2023-03-21T14:08:15.261Z,20.56
2023-03-21T14:10:49.979Z,20.66
2023-03-21T14:13:22.961Z,20.80
2023-03-21T14:15:57.261Z,20.99
2023-03-21T14:18:52.978Z,21.25
2023-03-21T14:21:25.158Z,21.14
2023-03-21T14:24:02.779Z,21.15
2023-03-21T14:26:35.671Z,21.37
2023-03-21T14:29:12.369Z,21.27
2023-03-21T14:31:49.662Z,21.47
2023-03-21T14:34:20.956Z,21.14
2023-03-21T14:36:58.154Z,20.95
2023-03-21T14:39:32.067Z,21.16
2023-03-21T14:42:07.080Z,21.19
2023-03-21T14:44:56.193Z,21.14
2023-03-21T14:47:28.357Z,20.85
2023-03-21T14:50:01.065Z,20.80
2023-03-21T14:52:36.033Z,20.91
2023-03-21T14:55:16.881Z,20.72
2023-03-21T14:57:47.868Z,20.62
2023-03-21T15:00:24.735Z,20.41
2023-03-21T15:02:56.097Z,20.23
2023-03-21T15:05:29.572Z,20.03
2023-03-21T15:08:03.633Z,19.65
2023-03-21T15:10:34.451Z,19.85
2023-03-21T15:13:15.828Z,18.65
2023-03-21T15:15:47.101Z,18.41
2023-03-21T15:18:22.881Z,17.98
2023-03-21T15:20:54.015Z,18.16
2023-03-21T15:23:30.252Z,18.12
2023-03-21T15:26:00.511Z,17.72
2023-03-21T15:28:30.696Z,17.48
2023-03-21T15:31:00.633Z,17.81
2023-03-21T15:33:30.585Z,17.73
2023-03-21T15:36:02.686Z,17.77
2023-03-21T15:38:40.465Z,17.91
2023-03-21T15:41:17.999Z,17.99
2023-03-21T15:43:48.199Z,17.80
2023-03-21T15:46:19.352Z,17.79
2023-03-21T15:48:49.200Z,17.93
2023-03-21T15:51:24.137Z,17.23
2023-03-21T15:53:57.314Z,17.03
2023-03-21T15:56:34.165Z,16.61
2023-03-21T15:59:06.928Z,16.44
2023-03-21T16:01:39.044Z,16.19
2023-03-21T16:04:11.117Z,16.14
2023-03-21T16:06:41.931Z,15.79
2023-03-21T16:09:22.165Z,15.69
2023-03-21T16:11:53.408Z,15.58
2023-03-21T16:14:24.254Z,15.50
2023-03-21T16:16:54.088Z,15.32
2023-03-21T16:19:24.712Z,15.25
2023-03-21T16:21:54.558Z,15.12
2023-03-21T16:24:26.928Z,14.99
2023-03-21T16:26:56.676Z,14.96
2023-03-21T16:29:26.445Z,14.93
2023-03-21T16:31:56.302Z,14.87
2023-03-21T16:34:27.211Z,14.80
2023-03-21T16:36:57.001Z,14.74
2023-03-21T16:39:29.398Z,14.74
2023-03-21T16:41:59.194Z,14.57
2023-03-21T16:44:28.917Z,14.46
2023-03-21T16:47:01.951Z,14.34
2023-03-21T16:49:32.137Z,14.28
2023-03-21T16:52:02.093Z,14.16
2023-03-21T16:54:34.406Z,14.06
2023-03-21T16:57:08.107Z,14.00
2023-03-21T16:59:39.192Z,13.89
2023-03-21T17:02:16.501Z,13.81
2023-03-21T17:04:47.009Z,13.74
2023-03-21T17:07:17.921Z,13.72
2023-03-21T17:09:50.724Z,13.61
2023-03-21T17:12:21.023Z,13.69
2023-03-21T17:14:51.163Z,13.63
2023-03-21T17:17:21.760Z,13.49
2023-03-21T17:19:51.579Z,13.47
2023-03-21T17:22:21.330Z,13.46
2023-03-21T17:24:53.668Z,13.38
2023-03-21T17:27:23.434Z,13.35
2023-03-21T17:29:53.237Z,13.34
2023-03-21T17:32:23.105Z,13.21
2023-03-21T17:34:53.342Z,13.23
2023-03-21T17:37:26.574Z,13.23
2023-03-21T17:39:58.990Z,13.24
2023-03-21T17:42:28.789Z,13.24
2023-03-21T17:44:58.506Z,13.23
2023-03-21T17:47:31.296Z,13.19
2023-03-21T17:50:01.056Z,13.17
2023-03-21T17:52:30.928Z,13.16
2023-03-21T17:55:03.294Z,13.10
2023-03-21T17:57:33.044Z,13.07
2023-03-21T18:00:05.298Z,12.96
2023-03-21T18:02:42.554Z,13.02
2023-03-21T18:05:13.379Z,13.06
2023-03-21T18:10:37.759Z,12.96
2023-03-21T18:13:07.764Z,12.88
2023-03-21T18:15:38.388Z,12.87
2023-03-21T18:18:08.426Z,12.91
2023-03-21T18:20:54.880Z,12.92
2023-03-21T18:23:27.324Z,12.92
2023-03-21T18:25:59.742Z,12.91
2023-03-21T18:28:29.883Z,12.94
2023-03-21T18:31:09.908Z,12.92
2023-03-21T18:33:42.011Z,12.95
2023-03-21T18:36:14.330Z,12.96
2023-03-21T18:38:44.461Z,12.92
2023-03-21T18:41:18.676Z,12.87
2023-03-21T18:44:14.786Z,12.92
2023-03-21T18:46:40.550Z,12.96
2023-03-21T18:49:51.958Z,12.92
2023-03-21T18:52:00.554Z,12.90
2023-03-21T18:54:30.560Z,12.87
2023-03-21T18:59:53.244Z,12.78
2023-03-21T19:02:23.412Z,12.82
2023-03-21T19:04:53.719Z,12.86
2023-03-21T19:07:24.954Z,12.93
2023-03-21T19:10:16.034Z,12.92
2023-03-21T19:12:47.911Z,12.84
2023-03-21T19:15:21.327Z,12.91
2023-03-21T19:18:34.357Z,12.88
2023-03-21T19:20:46.140Z,12.85
2023-03-21T19:23:17.470Z,12.72
2023-03-21T19:25:48.326Z,12.71
2023-03-21T19:28:20.910Z,12.61
2023-03-21T19:30:51.195Z,12.57
2023-03-21T19:33:21.649Z,12.44
2023-03-21T19:36:10.891Z,12.48
2023-03-21T19:38:42.764Z,12.44
2023-03-21T19:41:13.022Z,12.51
2023-03-21T19:43:53.742Z,12.54
2023-03-21T19:46:25.576Z,12.51
2023-03-21T19:48:57.222Z,12.44
2023-03-21T19:51:30.615Z,12.38
2023-03-21T19:54:01.542Z,12.33
2023-03-21T19:56:31.968Z,12.27
2023-03-21T19:59:04.556Z,12.13
2023-03-21T20:01:34.847Z,12.05
2023-03-21T20:04:05.319Z,11.95
2023-03-21T20:06:35.079Z,11.81
2023-03-21T20:09:47.275Z,11.82
2023-03-21T20:11:57.776Z,11.72
2023-03-21T20:14:30.149Z,11.73
2023-03-21T20:17:00.430Z,11.69
2023-03-21T20:19:30.209Z,11.68
2023-03-21T20:22:02.704Z,11.66
2023-03-21T20:24:32.790Z,11.61
2023-03-21T20:27:02.871Z,11.64
2023-03-21T20:30:08.058Z,11.68
2023-03-21T20:32:25.050Z,11.61
2023-03-21T20:35:05.581Z,11.65
2023-03-21T20:37:41.573Z,11.64
2023-03-21T20:40:12.532Z,11.62
2023-03-21T20:42:43.795Z,11.63
2023-03-21T20:45:18.266Z,11.62
2023-03-21T20:47:48.290Z,11.56
2023-03-21T20:50:21.999Z,11.49
2023-03-21T20:53:06.055Z,11.49
2023-03-21T20:55:37.278Z,11.50
2023-03-21T20:58:29.903Z,11.43
2023-03-21T21:01:03.827Z,11.45
2023-03-21T21:03:38.271Z,11.48
2023-03-21T21:06:13.400Z,11.49
2023-03-21T21:08:44.004Z,11.49
2023-03-21T21:14:05.461Z,11.46
2023-03-21T21:16:37.773Z,11.47
2023-03-21T21:19:08.362Z,11.52
2023-03-21T21:21:38.185Z,11.45
2023-03-21T21:24:08.995Z,11.38
2023-03-21T21:26:40.859Z,11.48
2023-03-21T21:29:11.107Z,11.52
2023-03-21T21:31:44.549Z,11.50
2023-03-21T21:34:15.807Z,11.46
2023-03-21T21:36:45.859Z,11.45
2023-03-21T21:39:16.587Z,11.51
2023-03-21T21:41:46.417Z,11.58
2023-03-21T21:44:19.235Z,11.54
2023-03-21T21:46:51.645Z,11.49
2023-03-21T21:49:21.468Z,11.41
2023-03-21T21:51:51.217Z,11.36
2023-03-21T21:54:21.015Z,11.31
2023-03-21T21:56:54.316Z,11.28
2023-03-21T21:59:24.685Z,11.21
2023-03-21T22:01:58.611Z,11.23
2023-03-21T22:04:28.657Z,11.22
2023-03-21T22:06:58.788Z,11.19
2023-03-21T22:09:28.660Z,11.24
2023-03-21T22:11:58.403Z,11.27
2023-03-21T22:14:28.176Z,11.32
2023-03-21T22:17:03.690Z,11.34
2023-03-21T22:19:33.997Z,11.29
2023-03-21T22:22:03.801Z,11.35
2023-03-21T22:24:33.971Z,11.28
2023-03-21T22:27:03.861Z,11.22
2023-03-21T22:29:33.666Z,11.09
2023-03-21T22:32:06.253Z,10.98
2023-03-21T22:34:36.065Z,10.87
2023-03-21T22:37:06.017Z,10.71
2023-03-21T22:39:36.005Z,10.50
2023-03-21T22:42:06.891Z,10.46
2023-03-21T22:44:37.234Z,10.40
2023-03-21T22:47:11.761Z,10.30
2023-03-21T22:49:42.662Z,10.10
2023-03-21T22:52:13.291Z,10.06
2023-03-21T22:54:43.368Z,9.95
2023-03-21T22:57:13.662Z,9.88
2023-03-21T22:59:43.384Z,9.77
2023-03-21T23:02:15.883Z,9.71
2023-03-21T23:04:45.747Z,9.58
2023-03-21T23:07:15.717Z,9.40
2023-03-21T23:09:45.523Z,9.28
2023-03-21T23:12:16.947Z,9.12
2023-03-21T23:14:46.702Z,9.15
2023-03-21T23:17:19.050Z,9.14
2023-03-21T23:19:48.800Z,8.95
2023-03-21T23:22:18.642Z,8.99
2023-03-21T23:24:49.065Z,8.89
2023-03-21T23:27:18.782Z,8.71
2023-03-21T23:29:49.057Z,8.59
2023-03-21T23:32:21.484Z,8.52
2023-03-21T23:34:51.244Z,8.48
2023-03-21T23:37:21.283Z,8.40
2023-03-21T23:39:52.511Z,8.32
2023-03-21T23:42:22.300Z,8.24
2023-03-21T23:44:52.246Z,8.23
2023-03-21T23:47:24.640Z,8.12
2023-03-21T23:49:54.519Z,8.10
2023-03-21T23:52:24.519Z,8.08
2023-03-21T23:54:54.317Z,8.05
2023-03-21T23:57:24.098Z,8.01
2023-03-21T23:59:56.866Z,7.91
